createdAt,value
2019-06-20T00:00:25.469Z,18.40
2019-06-20T00:02:55.471Z,18.40
2019-06-20T00:05:26.194Z,18.40
2019-06-20T00:07:55.602Z,18.50
2019-06-20T00:10:26.144Z,18.30
2019-06-20T00:13:00.419Z,18.20
2019-06-20T00:15:27.192Z,18.20
2019-06-20T00:17:56.701Z,18.20
2019-06-20T00:20:26.322Z,18.10
2019-06-20T00:22:55.912Z,18.10
2019-06-20T00:25:25.521Z,18.00
2019-06-20T00:27:56.104Z,18.00
2019-06-20T00:30:25.750Z,18.00
2019-06-20T00:32:55.880Z,18.00
2019-06-20T00:35:25.364Z,18.00
2019-06-20T00:37:55.099Z,18.00
2019-06-20T00:40:24.793Z,18.00
2019-06-20T00:42:55.521Z,18.00
2019-06-20T00:45:25.230Z,18.00
2019-06-20T00:47:54.695Z,17.90
2019-06-20T00:50:25.207Z,17.80
2019-06-20T00:52:54.771Z,17.80
2019-06-20T00:55:24.389Z,17.70
2019-06-20T00:57:53.805Z,17.70
2019-06-20T01:00:23.703Z,17.60
2019-06-20T01:02:53.309Z,17.70
2019-06-20T01:05:22.965Z,17.70
2019-06-20T01:07:52.405Z,17.70
2019-06-20T01:10:21.927Z,17.80
2019-06-20T01:12:51.424Z,17.90
2019-06-20T01:15:20.940Z,17.80
2019-06-20T01:17:50.537Z,17.80
2019-06-20T01:20:20.242Z,17.80
2019-06-20T01:22:49.778Z,17.70
2019-06-20T01:25:23.371Z,17.60
2019-06-20T01:27:52.853Z,17.60
2019-06-20T01:30:23.586Z,17.60
2019-06-20T01:32:53.091Z,17.60
2019-06-20T01:35:22.592Z,17.70
2019-06-20T01:37:52.199Z,17.80
2019-06-20T01:40:21.714Z,17.80
2019-06-20T01:42:51.239Z,17.80
2019-06-20T01:45:20.928Z,17.70
2019-06-20T01:47:50.466Z,17.70
2019-06-20T01:50:20.346Z,17.80
2019-06-20T01:52:49.850Z,17.80
2019-06-20T01:55:19.555Z,17.80
2019-06-20T01:57:49.250Z,17.80
2019-06-20T02:00:21.844Z,17.80
2019-06-20T02:02:51.346Z,17.80
2019-06-20T02:05:20.824Z,17.80
2019-06-20T02:07:50.453Z,17.80
2019-06-20T02:10:20.266Z,17.80
2019-06-20T02:12:49.976Z,17.70
2019-06-20T02:15:19.688Z,17.70
2019-06-20T02:17:49.217Z,17.70
2019-06-20T02:20:21.870Z,17.70
2019-06-20T02:22:51.486Z,17.60
2019-06-20T02:25:21.191Z,17.60
2019-06-20T02:27:50.796Z,17.70
2019-06-20T02:30:20.815Z,17.70
2019-06-20T02:32:50.530Z,17.80
2019-06-20T02:35:20.023Z,17.90
2019-06-20T02:37:50.654Z,17.90
2019-06-20T02:40:20.274Z,17.90
2019-06-20T02:42:49.893Z,17.90
2019-06-20T02:45:19.824Z,17.90
2019-06-20T02:47:49.368Z,17.90
2019-06-20T02:50:20.226Z,18.00
2019-06-20T02:52:49.944Z,18.00
2019-06-20T02:55:19.549Z,18.00
2019-06-20T02:57:49.012Z,18.00
2019-06-20T03:00:21.627Z,18.00
2019-06-20T03:02:51.049Z,18.00
2019-06-20T03:05:20.630Z,17.90
2019-06-20T03:07:50.142Z,18.00
2019-06-20T03:10:20.017Z,18.00
2019-06-20T03:12:49.604Z,18.10
2019-06-20T03:15:19.150Z,18.20
2019-06-20T03:17:48.667Z,18.20
2019-06-20T03:20:18.224Z,18.30
2019-06-20T03:22:47.748Z,18.30
2019-06-20T03:25:18.856Z,18.40
2019-06-20T03:27:48.527Z,18.40
2019-06-20T03:30:18.486Z,18.50
2019-06-20T03:32:48.048Z,18.50
2019-06-20T03:35:17.561Z,18.60
2019-06-20T03:37:50.119Z,18.60
2019-06-20T03:40:18.409Z,18.70
2019-06-20T03:42:47.901Z,18.80
2019-06-20T03:45:17.622Z,18.90
2019-06-20T03:47:47.016Z,19.00
2019-06-20T03:50:16.695Z,19.00
2019-06-20T03:52:47.877Z,19.10
2019-06-20T03:55:17.490Z,19.20
2019-06-20T03:57:47.074Z,19.20
2019-06-20T04:00:18.217Z,19.30
2019-06-20T04:02:47.721Z,19.40
2019-06-20T04:05:17.440Z,19.40
2019-06-20T04:07:46.952Z,19.40
2019-06-20T04:10:16.512Z,19.40
2019-06-20T04:12:46.060Z,19.60
2019-06-20T04:15:19.411Z,19.60
2019-06-20T04:17:46.679Z,19.70
2019-06-20T04:20:18.067Z,19.80
2019-06-20T04:22:47.686Z,19.80
2019-06-20T04:25:17.377Z,19.90
2019-06-20T04:27:46.867Z,20.00
2019-06-20T04:30:17.572Z,20.10
2019-06-20T04:32:47.127Z,20.20
2019-06-20T04:35:16.596Z,20.20
2019-06-20T04:37:46.304Z,20.30
2019-06-20T04:40:16.940Z,20.40
2019-06-20T04:42:46.559Z,20.40
2019-06-20T04:45:17.708Z,20.50
2019-06-20T04:47:47.246Z,20.60
2019-06-20T04:50:16.823Z,20.60
2019-06-20T04:52:46.434Z,20.70
2019-06-20T04:55:16.139Z,20.80
2019-06-20T04:57:45.756Z,20.90
2019-06-20T05:00:15.544Z,21.00
2019-06-20T05:02:45.165Z,21.10
2019-06-20T05:05:15.320Z,21.20
2019-06-20T05:07:44.887Z,21.20
2019-06-20T05:10:14.574Z,21.30
2019-06-20T05:12:44.105Z,21.50
2019-06-20T05:15:14.121Z,21.60
2019-06-20T05:17:43.629Z,21.70
2019-06-20T05:20:13.255Z,21.80
2019-06-20T05:22:42.745Z,22.00
2019-06-20T05:25:13.622Z,22.20
2019-06-20T05:27:43.201Z,22.40
2019-06-20T05:30:14.105Z,22.60
2019-06-20T05:32:43.711Z,22.80
2019-06-20T05:35:15.574Z,22.90
2019-06-20T05:37:45.191Z,23.20
2019-06-20T05:40:15.084Z,23.30
2019-06-20T05:42:44.539Z,23.50
2019-06-20T05:45:14.623Z,23.60
2019-06-20T05:47:45.158Z,23.60
2019-06-20T05:50:15.782Z,23.60
2019-06-20T05:52:45.358Z,23.70
2019-06-20T05:55:15.404Z,24.10
2019-06-20T05:57:45.074Z,24.30
2019-06-20T06:00:16.065Z,24.70
2019-06-20T06:02:45.563Z,24.40
2019-06-20T06:05:15.149Z,24.50
2019-06-20T06:07:44.671Z,24.80
2019-06-20T06:10:14.588Z,25.30
2019-06-20T06:12:45.174Z,25.60
2019-06-20T06:15:15.134Z,25.90
2019-06-20T06:17:44.696Z,26.30
2019-06-20T06:20:16.194Z,27.20
2019-06-20T06:22:45.697Z,27.90
2019-06-20T06:25:15.435Z,28.70
2019-06-20T06:27:44.886Z,29.10
2019-06-20T06:30:14.907Z,29.40
2019-06-20T06:32:44.311Z,30.30
2019-06-20T06:35:14.350Z,30.70
2019-06-20T06:37:44.048Z,30.50
2019-06-20T06:40:14.992Z,30.60
2019-06-20T06:42:44.530Z,30.70
2019-06-20T06:45:14.632Z,30.40
2019-06-20T06:47:44.127Z,28.80
2019-06-20T06:50:14.274Z,27.90
2019-06-20T06:52:43.889Z,27.60
2019-06-20T06:55:13.780Z,27.20
2019-06-20T06:57:43.353Z,26.80
2019-06-20T07:00:15.176Z,26.80
2019-06-20T07:02:44.784Z,26.70
2019-06-20T07:05:14.439Z,26.60
2019-06-20T07:07:44.046Z,26.60
2019-06-20T07:10:13.655Z,26.70
2019-06-20T07:12:43.494Z,26.50
2019-06-20T07:15:16.302Z,26.50
2019-06-20T07:17:45.869Z,26.50
2019-06-20T07:20:16.027Z,26.40
2019-06-20T07:22:45.507Z,26.40
2019-06-20T07:25:15.470Z,26.50
2019-06-20T07:27:45.033Z,26.60
2019-06-20T07:30:16.656Z,26.60
2019-06-20T07:32:46.269Z,26.70
2019-06-20T07:35:16.240Z,26.70
2019-06-20T07:37:45.741Z,26.60
2019-06-20T07:40:16.516Z,26.70
2019-06-20T07:42:47.249Z,26.80
2019-06-20T07:45:17.271Z,27.00
2019-06-20T07:47:46.916Z,27.10
2019-06-20T07:50:16.931Z,27.00
2019-06-20T07:53:00.947Z,26.90
2019-06-20T07:55:17.699Z,27.10
2019-06-20T07:57:47.248Z,27.10
2019-06-20T08:00:17.268Z,26.90
2019-06-20T08:02:46.768Z,26.80
2019-06-20T08:05:16.668Z,27.00
2019-06-20T08:07:46.196Z,27.00
2019-06-20T08:10:18.378Z,27.00
2019-06-20T08:12:47.795Z,27.00
2019-06-20T08:15:19.117Z,27.20
2019-06-20T08:17:48.607Z,27.20
2019-06-20T08:20:18.842Z,27.30
2019-06-20T08:22:48.232Z,27.40
2019-06-20T08:25:18.030Z,27.20
2019-06-20T08:27:49.179Z,27.20
2019-06-20T08:30:21.538Z,27.20
2019-06-20T08:32:51.146Z,27.20
2019-06-20T08:35:23.002Z,27.30
2019-06-20T08:37:53.543Z,27.40
2019-06-20T08:40:24.854Z,27.20
2019-06-20T08:42:55.316Z,27.20
2019-06-20T08:45:27.842Z,27.20
2019-06-20T08:47:58.306Z,27.10
2019-06-20T08:50:28.109Z,27.10
2019-06-20T08:52:58.603Z,27.20
2019-06-20T08:55:29.080Z,27.30
2019-06-20T08:57:59.724Z,27.30
2019-06-20T09:00:33.741Z,27.00
2019-06-20T09:05:33.267Z,27.20
2019-06-20T09:10:35.684Z,27.30
2019-06-20T09:13:05.898Z,27.30
2019-06-20T09:15:35.702Z,27.30
2019-06-20T09:18:05.841Z,27.40
2019-06-20T09:20:35.917Z,27.60
2019-06-20T09:23:05.837Z,27.60
2019-06-20T09:25:37.230Z,27.70
2019-06-20T09:28:07.312Z,27.80
2019-06-20T09:30:37.543Z,27.90
2019-06-20T09:33:07.179Z,28.00
2019-06-20T09:35:36.835Z,28.00
2019-06-20T09:38:06.548Z,28.10
2019-06-20T09:40:36.258Z,28.00
2019-06-20T09:43:06.134Z,28.00
2019-06-20T09:45:35.795Z,28.20
2019-06-20T09:48:05.343Z,28.10
2019-06-20T09:50:36.120Z,28.20
2019-06-20T09:53:05.738Z,28.30
2019-06-20T09:55:36.584Z,28.50
2019-06-20T09:58:07.922Z,28.40
2019-06-20T10:00:37.965Z,28.60
2019-06-20T10:03:07.529Z,28.80
2019-06-20T10:05:37.145Z,28.90
2019-06-20T10:08:06.683Z,28.80
2019-06-20T10:10:36.673Z,28.80
2019-06-20T10:13:06.080Z,28.90
2019-06-20T10:15:37.607Z,28.90
2019-06-20T10:18:07.594Z,29.20
2019-06-20T10:20:38.983Z,29.10
2019-06-20T10:23:08.823Z,29.20
2019-06-20T10:25:39.529Z,29.20
2019-06-20T10:28:09.082Z,29.30
2019-06-20T10:30:38.528Z,29.30
2019-06-20T10:33:10.665Z,29.20
2019-06-20T10:35:41.726Z,29.00
2019-06-20T10:38:12.111Z,28.90
2019-06-20T10:40:41.919Z,28.80
2019-06-20T10:43:11.582Z,28.90
2019-06-20T10:45:44.076Z,29.10
2019-06-20T10:48:13.185Z,29.10
2019-06-20T10:50:46.246Z,29.30
2019-06-20T10:53:15.998Z,29.40
2019-06-20T10:55:46.964Z,29.60
2019-06-20T10:58:16.917Z,29.70
2019-06-20T11:00:46.525Z,29.70
2019-06-20T11:03:16.687Z,29.60
2019-06-20T11:05:48.057Z,29.30
2019-06-20T11:08:19.256Z,29.30
2019-06-20T11:10:50.824Z,29.40
2019-06-20T11:13:20.682Z,29.60
2019-06-20T11:15:53.810Z,29.60
2019-06-20T11:18:23.704Z,29.60
2019-06-20T11:20:53.495Z,29.50
2019-06-20T11:23:23.291Z,29.60
2019-06-20T11:25:53.329Z,29.60
2019-06-20T11:28:23.112Z,29.70
2019-06-20T11:30:59.949Z,29.60
2019-06-20T11:33:24.891Z,29.60
2019-06-20T11:35:54.727Z,29.90
2019-06-20T11:38:24.575Z,29.60
2019-06-20T20:13:08.211Z,20.50
2019-06-20T20:15:37.729Z,20.20
2019-06-20T20:18:07.431Z,20.30
2019-06-20T20:20:37.033Z,20.30
2019-06-20T20:23:06.851Z,20.40
2019-06-20T20:25:36.356Z,20.40
2019-06-20T20:28:05.846Z,20.50
2019-06-20T20:30:35.373Z,20.50
2019-06-20T20:33:05.588Z,20.50
2019-06-20T20:35:36.161Z,20.60
2019-06-20T20:38:05.808Z,20.50
2019-06-20T20:40:35.409Z,20.30
2019-06-20T20:43:04.879Z,20.30
2019-06-20T20:45:34.432Z,20.40
2019-06-20T20:48:04.476Z,20.50
2019-06-20T20:50:33.944Z,20.60
2019-06-20T20:53:03.429Z,20.60
2019-06-20T20:55:32.903Z,20.40
2019-06-20T20:58:02.426Z,20.40
2019-06-20T21:00:35.055Z,20.50
2019-06-20T21:03:07.306Z,20.60
2019-06-20T21:05:50.693Z,20.20
2019-06-20T21:08:07.246Z,20.50
2019-06-20T21:10:36.708Z,20.50
2019-06-20T21:13:06.088Z,20.40
2019-06-20T21:15:35.583Z,20.50
2019-06-20T21:18:05.172Z,20.50
2019-06-20T21:20:34.674Z,20.30
2019-06-20T21:23:04.172Z,20.30
2019-06-20T21:25:33.645Z,20.30
2019-06-20T21:28:03.181Z,20.50
2019-06-20T21:30:32.896Z,20.40
2019-06-20T21:33:02.433Z,20.50
2019-06-20T21:35:31.907Z,20.50
2019-06-20T21:38:01.405Z,20.50
2019-06-20T21:40:31.909Z,20.60
2019-06-20T21:43:01.437Z,20.50
2019-06-20T21:45:30.835Z,20.30
2019-06-20T21:48:01.515Z,20.40
2019-06-20T21:50:31.028Z,20.20
2019-06-20T21:53:00.507Z,20.30
2019-06-20T21:55:29.971Z,20.30
2019-06-20T21:57:59.489Z,20.30
2019-06-20T22:00:33.709Z,20.20
2019-06-20T22:03:05.934Z,20.30
2019-06-20T22:05:35.476Z,20.30
2019-06-20T22:08:05.825Z,20.30
2019-06-20T22:10:35.307Z,20.40
2019-06-20T22:13:05.531Z,20.40
2019-06-20T22:15:35.107Z,20.50
2019-06-20T22:18:04.955Z,20.60
2019-06-20T22:20:34.554Z,20.60
2019-06-20T22:23:04.362Z,20.70
2019-06-20T22:25:34.077Z,20.70
2019-06-20T22:28:04.188Z,20.80
2019-06-20T22:30:36.663Z,20.70
2019-06-20T22:33:06.200Z,20.60
2019-06-20T22:35:35.785Z,20.60
2019-06-20T22:38:05.396Z,20.20
2019-06-20T22:40:34.911Z,19.50
2019-06-20T22:43:04.628Z,19.10
2019-06-20T22:45:35.339Z,19.00
2019-06-20T22:48:06.345Z,19.10
2019-06-20T22:50:35.981Z,19.20
2019-06-20T22:53:05.796Z,19.00
2019-06-20T22:55:36.222Z,19.10
2019-06-20T22:58:06.695Z,19.20
2019-06-20T23:00:36.385Z,19.20
2019-06-20T23:03:06.453Z,19.10
2019-06-20T23:05:36.170Z,19.10
2019-06-20T23:08:05.998Z,19.20
2019-06-20T23:10:35.605Z,19.40
2019-06-20T23:13:05.419Z,19.40
2019-06-20T23:15:34.925Z,19.50
2019-06-20T23:18:04.944Z,19.60
2019-06-20T23:20:34.543Z,19.70
2019-06-20T23:23:04.262Z,19.70
2019-06-20T23:25:34.591Z,19.70
2019-06-20T23:28:04.591Z,19.50
2019-06-20T23:30:34.204Z,19.40
2019-06-20T23:33:03.807Z,19.40
2019-06-20T23:35:33.712Z,19.50
2019-06-20T23:38:03.265Z,19.60
2019-06-20T23:40:32.936Z,19.70
2019-06-20T23:43:02.406Z,19.80
2019-06-20T23:45:31.956Z,19.70
2019-06-20T23:48:01.708Z,19.60
2019-06-20T23:50:31.285Z,19.70
2019-06-20T23:53:02.404Z,19.90
2019-06-20T23:55:32.626Z,19.90
2019-06-20T23:58:02.131Z,19.90
